Time;durP1;ratioP1;P1;durP2;ratioP2;P2;SDS_P1;SDS_P2;PMS_P1;PMS_P2;Temp;Humidity;BMP_temperature;BMP_pressure;BME280_temperature;BME280_humidity;BME280_pressure;Samples;Min_cycle;Max_cycle;Signal;HPM_P1;HPM_P2
2021/04/01 00:01:11;;;;;;;15.65;2.70;;;29.80;54.80;;;;;;5081667;28;20102;-72
2021/04/01 00:03:40;;;;;;;10.00;1.95;;;30.10;53.60;;;;;;5085034;28;20107;-69
2021/04/01 00:06:08;;;;;;;9.82;1.80;;;30.40;54.10;;;;;;5085650;28;20370;-70
2021/04/01 00:08:35;;;;;;;6.10;1.20;;;30.40;54.30;;;;;;5079447;28;20067;-70
2021/04/01 00:11:03;;;;;;;4.85;1.35;;;30.70;53.50;;;;;;5085773;28;20036;-71
2021/04/01 00:13:30;;;;;;;5.60;1.60;;;30.50;53.80;;;;;;5075344;28;20099;-70
2021/04/01 00:15:59;;;;;;;6.82;1.38;;;30.90;54.10;;;;;;5072579;28;20028;-71
2021/04/01 00:18:26;;;;;;;5.55;1.60;;;31.00;55.70;;;;;;5070271;28;20093;-68
2021/04/01 00:20:54;;;;;;;8.60;1.13;;;30.80;51.10;;;;;;5071879;28;20658;-68
2021/04/01 00:23:21;;;;;;;5.68;0.80;;;31.20;50.60;;;;;;5079952;28;20421;-68
2021/04/01 00:25:49;;;;;;;3.97;1.05;;;30.90;52.20;;;;;;5075412;28;20103;-68
2021/04/01 00:28:16;;;;;;;5.13;1.13;;;31.00;52.80;;;;;;5084395;28;20459;-67
2021/04/01 00:30:44;;;;;;;6.63;0.95;;;31.30;51.10;;;;;;5079976;28;20084;-68
2021/04/01 00:33:11;;;;;;;3.22;0.63;;;30.80;51.60;;;;;;5085026;28;20026;-69
2021/04/01 00:35:39;;;;;;;5.15;1.40;;;31.10;51.10;;;;;;5079943;28;20444;-72
2021/04/01 00:38:06;;;;;;;5.07;1.15;;;31.10;49.70;;;;;;5076489;28;20094;-69
2021/04/01 00:40:34;;;;;;;6.57;1.33;;;31.00;49.90;;;;;;5094369;28;20577;-70
2021/04/01 00:43:01;;;;;;;3.08;0.63;;;30.90;49.20;;;;;;5080045;28;20138;-70
2021/04/01 00:45:28;;;;;;;3.95;0.60;;;30.90;50.50;;;;;;5082230;28;20031;-72
2021/04/01 00:47:56;;;;;;;3.25;0.60;;;31.30;53.80;;;;;;5076842;28;20040;-74
2021/04/01 00:50:29;;;;;;;3.42;0.70;;;31.80;48.30;;;;;;5074850;28;20036;-72
2021/04/01 00:52:56;;;;;;;3.88;0.77;;;31.80;47.20;;;;;;5075182;28;20031;-70
2021/04/01 00:55:24;;;;;;;3.95;1.23;;;31.90;48.70;;;;;;5075330;28;20470;-70
2021/04/01 00:57:53;;;;;;;2.88;0.90;;;32.00;47.00;;;;;;5084332;28;20028;-68
2021/04/01 01:00:25;;;;;;;4.25;0.75;;;31.30;48.90;;;;;;5081746;28;20482;-72
2021/04/01 01:02:53;;;;;;;1.05;0.40;;;31.10;48.10;;;;;;5085408;28;20044;-67
2021/04/01 01:05:23;;;;;;;1.92;0.50;;;31.40;48.80;;;;;;5070453;28;20032;-68
2021/04/01 01:07:51;;;;;;;3.33;0.60;;;31.10;46.30;;;;;;5083954;28;20028;-68
2021/04/01 01:10:21;;;;;;;5.25;0.98;;;29.30;51.00;;;;;;5080312;28;20036;-69
2021/04/01 01:12:49;;;;;;;4.88;0.80;;;28.10;55.40;;;;;;5085768;28;20021;-69
2021/04/01 01:15:18;;;;;;;2.33;0.50;;;27.60;54.70;;;;;;5083336;28;20016;-72
2021/04/01 01:17:46;;;;;;;3.90;1.27;;;26.50;57.90;;;;;;5084450;28;20125;-68
2021/04/01 01:20:14;;;;;;;3.75;0.68;;;26.10;60.00;;;;;;5086475;28;20035;-68
2021/04/01 01:22:42;;;;;;;4.75;0.77;;;26.30;61.80;;;;;;5084651;28;20136;-68
2021/04/01 01:25:12;;;;;;;4.10;0.98;;;27.60;58.70;;;;;;5080703;28;20042;-70
2021/04/01 01:27:40;;;;;;;6.50;0.90;;;29.00;57.20;;;;;;5080675;28;20070;-70
2021/04/01 01:30:14;;;;;;;4.43;0.98;;;30.10;53.30;;;;;;5093106;28;20052;-69
2021/04/01 01:32:45;;;;;;;4.03;0.60;;;30.30;52.60;;;;;;5112249;28;20528;-68
2021/04/01 01:35:28;;;;;;;4.82;0.95;;;30.10;50.90;;;;;;5107837;28;20039;-70
2021/04/01 01:38:13;;;;;;;4.53;0.70;;;29.00;51.00;;;;;;5102049;28;20095;-67
2021/04/01 01:40:41;;;;;;;3.60;1.08;;;27.80;56.30;;;;;;5107899;28;20023;-69
2021/04/01 01:43:11;;;;;;;3.40;0.85;;;26.90;57.00;;;;;;5103091;27;20445;-71
2021/04/01 01:48:18;;;;;;;5.80;0.80;;;26.00;61.20;;;;;;5390330;23;20065;-68
2021/04/01 01:50:45;;;;;;;3.90;0.80;;;26.10;61.60;;;;;;4983117;28;20364;-69
2021/04/01 01:53:13;;;;;;;4.43;1.35;;;26.30;61.20;;;;;;4983113;28;20247;-71
2021/04/01 01:55:42;;;;;;;8.52;1.35;;;26.50;61.60;;;;;;4983858;28;20105;-69
2021/04/01 01:58:09;;;;;;;3.25;0.70;;;26.70;60.90;;;;;;4987202;28;20132;-71
2021/04/01 02:00:47;;;;;;;5.35;0.80;;;26.60;61.70;;;;;;4985527;28;20387;-69
2021/04/01 02:03:15;;;;;;;3.10;0.55;;;26.50;61.50;;;;;;4987410;28;20096;-70
2021/04/01 02:05:43;;;;;;;5.55;1.25;;;26.60;61.20;;;;;;4985812;28;20081;-69
2021/04/01 02:08:13;;;;;;;2.67;0.85;;;26.60;59.50;;;;;;4985197;28;20113;-69
2021/04/01 02:10:50;;;;;;;5.82;1.58;;;26.40;60.70;;;;;;4939993;28;20441;-69
2021/04/01 02:13:20;;;;;;;4.05;0.88;;;26.30;61.40;;;;;;4948446;28;20122;-69
2021/04/01 02:15:53;;;;;;;3.83;0.63;;;26.30;61.10;;;;;;4949106;28;20027;-69
2021/04/01 02:18:29;;;;;;;3.70;0.60;;;26.10;60.50;;;;;;4942288;28;20552;-71
2021/04/01 02:20:59;;;;;;;4.88;1.02;;;25.80;59.60;;;;;;4943536;28;20055;-69
2021/04/01 02:23:33;;;;;;;2.20;0.50;;;25.90;61.50;;;;;;4946018;28;20516;-71
2021/04/01 02:26:02;;;;;;;2.17;0.70;;;26.00;62.20;;;;;;4946514;28;20086;-70
2021/04/01 02:28:32;;;;;;;3.65;1.75;;;26.10;60.90;;;;;;4948105;28;20441;-69
2021/04/01 02:31:02;;;;;;;6.47;1.05;;;26.10;61.60;;;;;;4946974;28;20057;-71
2021/04/01 02:33:31;;;;;;;3.70;1.30;;;26.20;60.60;;;;;;4946025;28;20031;-71
2021/04/01 02:35:58;;;;;;;2.55;1.13;;;26.30;60.40;;;;;;4947560;28;20153;-71
2021/04/01 02:38:27;;;;;;;3.55;0.80;;;26.50;59.50;;;;;;4945919;28;20031;-71
2021/04/01 02:40:56;;;;;;;3.33;0.82;;;26.90;59.80;;;;;;4941231;28;20390;-70
2021/04/01 02:43:35;;;;;;;3.25;0.85;;;28.50;57.50;;;;;;4948232;28;20041;-70
2021/04/01 02:46:04;;;;;;;7.35;1.38;;;29.30;54.20;;;;;;4943737;28;20035;-69
2021/04/01 02:48:32;;;;;;;4.68;1.42;;;30.20;53.70;;;;;;4943141;28;20050;-69
2021/04/01 02:51:00;;;;;;;5.47;1.02;;;31.00;54.20;;;;;;4946227;28;20043;-69
2021/04/01 02:53:27;;;;;;;4.90;0.50;;;30.30;52.60;;;;;;4944243;28;21666;-69
2021/04/01 02:55:55;;;;;;;3.60;0.70;;;29.30;53.00;;;;;;4950541;28;20093;-69
2021/04/01 02:58:23;;;;;;;8.50;1.17;;;28.70;54.30;;;;;;4949155;28;20400;-70
2021/04/01 03:00:51;;;;;;;3.30;0.85;;;29.10;52.90;;;;;;4946020;28;20097;-69
2021/04/01 03:03:25;;;;;;;2.70;1.27;;;29.40;51.10;;;;;;4950856;28;20043;-73
2021/04/01 03:05:55;;;;;;;2.78;0.50;;;29.70;50.60;;;;;;4950275;28;20085;-71
2021/04/01 03:08:23;;;;;;;4.28;0.57;;;29.90;48.00;;;;;;4951457;28;20114;-70
2021/04/01 03:10:50;;;;;;;1.42;0.50;;;30.00;49.70;;;;;;4949265;29;20046;-70
2021/04/01 03:13:17;;;;;;;0.68;0.50;;;30.70;46.90;;;;;;4946429;28;20030;-73
2021/04/01 03:15:45;;;;;;;2.22;0.70;;;30.60;45.40;;;;;;4948462;28;20106;-72
2021/04/01 03:18:13;;;;;;;3.75;0.60;;;31.20;45.90;;;;;;4950444;28;20482;-73
2021/04/01 03:20:40;;;;;;;2.40;0.63;;;31.60;46.10;;;;;;4945401;28;20027;-72
2021/04/01 03:23:08;;;;;;;4.10;0.68;;;31.80;45.90;;;;;;4945372;28;20023;-73
2021/04/01 03:25:35;;;;;;;3.20;0.70;;;32.00;44.00;;;;;;4947609;28;20031;-73
2021/04/01 03:28:03;;;;;;;1.55;0.35;;;32.10;43.90;;;;;;4952255;28;20027;-72
2021/04/01 03:30:30;;;;;;;1.48;0.32;;;31.90;42.40;;;;;;4948914;28;20043;-73
2021/04/01 03:32:58;;;;;;;3.72;0.98;;;31.40;44.70;;;;;;4950485;28;20023;-75
2021/04/01 03:35:25;;;;;;;1.90;0.43;;;31.70;43.30;;;;;;4945805;28;20039;-75
2021/04/01 03:38:00;;;;;;;3.03;0.85;;;31.00;43.90;;;;;;4950355;28;20031;-75
2021/04/01 03:40:28;;;;;;;2.92;0.80;;;30.10;45.30;;;;;;4947533;28;20093;-74
2021/04/01 03:42:56;;;;;;;4.50;0.80;;;28.90;49.10;;;;;;4947998;28;20042;-75
2021/04/01 03:45:23;;;;;;;4.70;0.95;;;28.10;51.70;;;;;;4948273;28;20038;-74
2021/04/01 03:47:51;;;;;;;2.95;0.80;;;27.50;53.30;;;;;;4960075;28;20552;-75
2021/04/01 03:50:18;;;;;;;2.55;0.65;;;27.30;53.60;;;;;;4957050;28;20466;-72
2021/04/01 03:52:45;;;;;;;3.67;1.00;;;27.20;52.70;;;;;;4959001;28;20210;-74
2021/04/01 03:58:00;;;;;;;5.38;1.17;;;26.90;54.50;;;;;;4959776;28;20102;-73
2021/04/01 04:00:31;;;;;;;6.93;1.10;;;26.70;54.60;;;;;;4958623;28;20428;-72
2021/04/01 04:05:55;;;;;;;5.55;1.00;;;26.80;58.30;;;;;;4958465;28;20358;-75
2021/04/01 04:11:00;;;;;;;5.20;1.50;;;26.70;58.90;;;;;;4966567;28;20528;-73
2021/04/01 04:13:44;;;;;;;5.32;0.95;;;26.80;58.70;;;;;;4959477;28;20118;-75
2021/04/01 04:16:11;;;;;;;5.53;1.20;;;26.80;59.50;;;;;;4953478;28;20035;-73
2021/04/01 04:18:39;;;;;;;6.47;1.27;;;26.80;59.10;;;;;;4959011;28;20374;-75
2021/04/01 04:21:06;;;;;;;4.45;1.15;;;26.90;59.80;;;;;;4960164;28;20035;-73
2021/04/01 04:23:37;;;;;;;4.13;0.60;;;26.90;58.40;;;;;;4970353;28;20110;-75
2021/04/01 04:26:05;;;;;;;5.22;1.30;;;26.90;57.80;;;;;;4964788;28;20037;-75
2021/04/01 04:28:34;;;;;;;9.55;1.15;;;26.80;58.20;;;;;;4962944;28;20449;-75
2021/04/01 04:31:03;;;;;;;4.95;1.00;;;26.80;58.80;;;;;;4952716;28;20042;-72
2021/04/01 04:33:31;;;;;;;4.53;1.05;;;26.80;59.10;;;;;;4959506;28;20052;-75
2021/04/01 04:35:59;;;;;;;5.03;1.42;;;26.80;58.70;;;;;;4959642;28;20121;-75
2021/04/01 04:38:28;;;;;;;4.55;0.85;;;26.90;59.50;;;;;;4965419;28;20035;-73
2021/04/01 04:40:56;;;;;;;2.55;0.70;;;26.70;59.50;;;;;;4956693;28;20066;-75
2021/04/01 04:43:29;;;;;;;3.63;0.68;;;26.80;60.00;;;;;;4959719;28;20045;-75
2021/04/01 04:45:57;;;;;;;3.42;0.95;;;27.50;60.10;;;;;;4959466;28;20027;-74
2021/04/01 04:48:25;;;;;;;1.05;0.70;;;28.30;58.80;;;;;;4964889;28;20050;-76
2021/04/01 04:50:53;;;;;;;3.55;0.95;;;28.40;55.70;;;;;;4962491;28;20039;-74
2021/04/01 04:53:21;;;;;;;2.72;0.50;;;28.60;58.60;;;;;;4967513;28;20035;-76
2021/04/01 05:06:25;;;;;;;4.72;0.70;;;27.30;54.20;;;;;;4962140;28;20037;-74
2021/04/01 05:08:53;;;;;;;2.70;0.60;;;27.00;54.80;;;;;;4958336;28;20101;-71
2021/04/01 05:11:20;;;;;;;1.75;0.60;;;26.90;55.60;;;;;;4961053;28;20062;-74
2021/04/01 05:13:48;;;;;;;5.10;1.95;;;26.80;54.70;;;;;;4963089;28;20038;-74
2021/04/01 05:16:16;;;;;;;4.60;0.57;;;26.70;55.90;;;;;;4958733;28;20380;-74
2021/04/01 05:18:46;;;;;;;2.38;0.68;;;26.50;55.80;;;;;;4967610;28;20030;-75
2021/04/01 05:21:15;;;;;;;3.08;0.50;;;26.40;57.70;;;;;;4962059;28;20026;-76
2021/04/01 05:23:46;;;;;;;1.45;0.47;;;26.40;57.00;;;;;;4968035;28;20153;-74
2021/04/01 05:26:48;;;;;;;4.82;0.55;;;26.40;56.10;;;;;;4961098;28;20031;-75
2021/04/01 05:29:21;;;;;;;2.20;0.77;;;26.30;55.50;;;;;;4961087;28;20114;-73
2021/04/01 05:31:50;;;;;;;2.45;0.50;;;26.30;55.30;;;;;;4959513;28;20031;-74
2021/04/01 05:34:18;;;;;;;2.58;0.60;;;26.20;55.60;;;;;;4961012;28;20122;-74
2021/04/01 05:36:46;;;;;;;5.57;0.60;;;26.10;57.30;;;;;;4963912;28;20030;-74
2021/04/01 05:39:18;;;;;;;4.18;0.90;;;25.90;58.30;;;;;;4961910;28;20035;-75
2021/04/01 05:41:51;;;;;;;6.28;1.20;;;25.80;59.90;;;;;;4962823;28;20038;-75
2021/04/01 05:44:34;;;;;;;4.90;1.02;;;25.70;60.30;;;;;;4963855;28;20024;-73
2021/04/01 05:47:07;;;;;;;6.35;1.15;;;25.50;60.20;;;;;;4965754;28;20035;-73
2021/04/01 05:58:18;;;;;;;7.30;1.25;;;25.40;61.60;;;;;;4931519;29;20052;-74
2021/04/01 06:04:00;;;;;;;6.40;1.25;;;25.20;61.70;;;;;;4931399;29;20042;-71
2021/04/01 06:06:39;;;;;;;8.48;1.33;;;25.00;62.60;;;;;;4934720;29;20167;-73
2021/04/01 06:09:19;;;;;;;2.38;0.98;;;25.10;63.10;;;;;;4934289;29;20140;-69
2021/04/01 06:11:58;;;;;;;4.07;0.70;;;25.10;62.30;;;;;;4942042;29;20422;-72
2021/04/01 06:14:34;;;;;;;5.15;0.82;;;25.10;62.60;;;;;;4934112;29;20027;-72
2021/04/01 06:17:06;;;;;;;4.03;0.82;;;25.20;63.20;;;;;;4932183;29;20035;-76
2021/04/01 06:19:42;;;;;;;4.50;1.05;;;25.30;62.90;;;;;;4932073;29;20513;-74
2021/04/01 06:22:10;;;;;;;2.80;0.90;;;25.40;62.00;;;;;;4932027;29;20478;-75
2021/04/01 06:24:38;;;;;;;4.57;0.70;;;25.40;61.80;;;;;;4930738;29;20035;-74
2021/04/01 06:27:30;;;;;;;5.72;1.10;;;25.30;61.90;;;;;;4933578;29;20039;-74
2021/04/01 06:32:56;;;;;;;5.35;0.88;;;25.40;61.80;;;;;;4931015;29;20028;-71
2021/04/01 06:36:01;;;;;;;4.25;1.10;;;25.50;62.40;;;;;;4931097;29;20031;-73
2021/04/01 06:38:24;;;;;;;3.25;0.73;;;25.50;62.90;;;;;;4928995;29;20116;-74
2021/04/01 06:41:04;;;;;;;5.83;0.90;;;25.50;63.50;;;;;;4929322;29;20074;-72
2021/04/01 06:43:39;;;;;;;4.28;0.80;;;25.40;64.50;;;;;;4932470;29;20398;-74
2021/04/01 06:46:09;;;;;;;3.22;1.00;;;25.30;65.20;;;;;;4927908;29;20510;-73
2021/04/01 06:49:01;;;;;;;4.28;1.35;;;25.20;66.20;;;;;;4943652;28;20138;-71
2021/04/01 06:51:41;;;;;;;3.15;1.00;;;25.10;66.40;;;;;;4948041;28;20077;-70
2021/04/01 06:54:11;;;;;;;;;;;;;;;;;;;;;
2021/04/01 06:59:42;;;;;;;2.58;0.88;;;24.70;67.90;;;;;;4949359;28;20024;-71
2021/04/01 07:04:46;;;;;;;4.00;0.80;;;24.70;68.50;;;;;;4947929;28;20061;-70
2021/04/01 07:07:18;;;;;;;1.45;0.47;;;24.60;68.40;;;;;;4947372;28;20122;-70
2021/04/01 07:12:33;;;;;;;4.57;0.82;;;24.50;69.30;;;;;;4945631;29;20430;-71
2021/04/01 07:15:27;;;;;;;3.50;0.90;;;24.60;69.30;;;;;;4945895;28;20347;-71
2021/04/01 07:24:22;;;;;;;6.13;1.38;;;24.60;69.80;;;;;;4946020;28;20111;-70
2021/04/01 07:33:03;;;;;;;6.95;1.05;;;24.30;70.60;;;;;;4950583;29;20425;-70
2021/04/01 07:35:50;;;;;;;1.88;0.50;;;24.10;70.90;;;;;;4946463;28;20168;-69
2021/04/01 07:49:29;;;;;;;6.55;0.88;;;23.60;73.20;;;;;;5091647;27;20440;-70
2021/04/01 07:52:03;;;;;;;13.60;1.00;;;23.50;73.40;;;;;;5096511;28;20020;-71
2021/04/01 07:54:40;;;;;;;3.55;0.57;;;23.50;73.50;;;;;;5087049;28;20082;-70
2021/04/01 07:57:29;;;;;;;4.28;0.70;;;23.50;73.40;;;;;;5088805;28;20362;-71
2021/04/01 08:04:58;;;;;;;4.72;1.02;;;23.20;74.90;;;;;;5090529;28;20021;-70
2021/04/01 08:07:32;;;;;;;4.20;1.13;;;23.10;74.90;;;;;;5095412;28;20064;-70
2021/04/01 08:10:03;;;;;;;5.72;0.93;;;23.10;75.10;;;;;;5084527;28;20433;-70
2021/04/01 08:12:39;;;;;;;5.10;1.27;;;23.10;75.30;;;;;;5096086;28;20027;-71
2021/04/01 08:15:10;;;;;;;3.33;0.90;;;23.00;75.40;;;;;;5088308;28;20111;-70
2021/04/01 08:17:48;;;;;;;5.25;1.23;;;23.00;75.70;;;;;;5093598;28;20036;-72
2021/04/01 08:20:25;;;;;;;4.95;1.17;;;22.90;76.00;;;;;;5084912;28;20028;-73
2021/04/01 08:23:30;;;;;;;4.97;1.10;;;22.80;76.40;;;;;;5090799;28;20032;-70
2021/04/01 08:25:57;;;;;;;6.65;0.60;;;22.80;76.60;;;;;;5087021;28;20050;-71
2021/04/01 08:28:46;;;;;;;5.93;0.88;;;22.80;76.80;;;;;;5087152;28;20208;-71
2021/04/01 08:36:28;;;;;;;5.22;1.00;;;22.70;77.20;;;;;;5087982;28;19912;-70
2021/04/01 08:38:56;;;;;;;7.72;1.60;;;22.70;77.70;;;;;;5093289;28;20529;-70
2021/04/01 08:41:26;;;;;;;5.40;1.13;;;22.50;78.30;;;;;;5088656;28;20112;-70
2021/04/01 08:43:59;;;;;;;6.70;1.35;;;22.30;79.00;;;;;;5080410;28;20022;-69
2021/04/01 08:46:50;;;;;;;4.50;0.90;;;22.10;80.10;;;;;;5088085;28;20434;-72
2021/04/01 08:49:37;;;;;;;8.60;1.52;;;22.10;80.10;;;;;;5085445;28;20106;-69
2021/04/01 08:52:07;;;;;;;7.95;1.67;;;22.10;80.50;;;;;;5088570;28;20212;-68
2021/04/01 08:54:46;;;;;;;14.80;2.13;;;22.10;80.50;;;;;;5093284;28;20036;-68
2021/04/01 08:57:51;;;;;;;7.72;1.02;;;22.10;80.30;;;;;;5091578;28;20021;-69
2021/04/01 09:00:21;;;;;;;10.38;1.08;;;22.30;79.70;;;;;;5077724;28;20036;-69
2021/04/01 09:02:54;;;;;;;4.05;0.70;;;22.40;79.80;;;;;;5081226;28;20138;-69
2021/04/01 09:05:22;;;;;;;4.80;0.60;;;22.40;79.90;;;;;;5074123;28;20048;-68
2021/04/01 09:08:01;;;;;;;7.88;1.60;;;22.30;80.20;;;;;;5078271;28;20035;-71
2021/04/01 09:10:40;;;;;;;10.20;1.80;;;22.30;80.30;;;;;;5077474;28;20385;-69
2021/04/01 09:13:20;;;;;;;10.35;1.20;;;22.10;80.70;;;;;;5071778;28;20108;-70
2021/04/01 09:18:32;;;;;;;11.73;2.25;;;21.90;81.90;;;;;;5076175;28;21100;-71
2021/04/01 09:21:02;;;;;;;22.73;2.20;;;21.80;82.30;;;;;;5074309;28;20514;-69
2021/04/01 09:23:55;;;;;;;14.60;2.47;;;21.70;82.90;;;;;;5074784;28;20860;-69
2021/04/01 09:26:25;;;;;;;16.02;1.77;;;21.60;83.40;;;;;;5074233;28;20098;-69
2021/04/01 09:29:06;;;;;;;14.27;1.95;;;21.50;84.10;;;;;;5067646;28;20046;-72
2021/04/01 09:31:47;;;;;;;15.45;1.70;;;21.40;84.20;;;;;;5072635;28;20431;-73
2021/04/01 09:34:18;;;;;;;8.52;1.25;;;21.30;84.80;;;;;;5074613;28;20063;-74
2021/04/01 09:36:46;;;;;;;8.00;1.40;;;21.20;85.40;;;;;;5080004;28;20450;-73
2021/04/01 09:41:45;;;;;;;8.68;1.77;;;21.00;86.10;;;;;;5073558;28;20328;-73
2021/04/01 09:44:13;;;;;;;7.05;0.93;;;20.90;86.70;;;;;;5067655;28;20406;-70
2021/04/01 09:46:59;;;;;;;6.75;1.25;;;20.80;87.20;;;;;;5082819;28;20025;-70
2021/04/01 09:49:32;;;;;;;4.25;0.75;;;20.70;87.70;;;;;;5063279;28;20043;-73
2021/04/01 09:52:01;;;;;;;4.63;0.60;;;20.70;88.80;;;;;;5079060;28;20071;-71
2021/04/01 09:54:31;;;;;;;6.00;0.80;;;20.70;88.30;;;;;;5074073;28;20090;-70
2021/04/01 09:57:00;;;;;;;2.78;0.90;;;20.60;88.50;;;;;;5073575;28;20028;-69
2021/04/01 09:59:49;;;;;;;4.82;1.20;;;20.60;88.60;;;;;;5070940;28;20091;-71
2021/04/01 10:02:28;;;;;;;3.63;1.17;;;20.60;88.70;;;;;;5075417;28;20024;-69
2021/04/01 10:05:04;;;;;;;4.22;1.48;;;20.50;88.70;;;;;;5070401;28;20438;-73
2021/04/01 10:07:37;;;;;;;5.10;1.15;;;20.40;89.20;;;;;;5078039;28;20032;-75
2021/04/01 10:10:06;;;;;;;6.00;1.25;;;20.40;89.40;;;;;;5072204;28;20064;-71
2021/04/01 10:12:41;;;;;;;3.47;0.82;;;20.40;89.40;;;;;;5076958;28;20103;-72
2021/04/01 10:15:11;;;;;;;5.28;1.40;;;20.40;89.60;;;;;;5074150;28;20062;-72
2021/04/01 10:17:40;;;;;;;4.38;1.65;;;20.30;89.70;;;;;;5074867;28;20043;-71
2021/04/01 10:20:09;;;;;;;5.53;1.58;;;20.30;90.00;;;;;;5065906;28;20024;-71
2021/04/01 10:22:39;;;;;;;3.78;1.45;;;20.30;89.90;;;;;;5068726;28;20032;-71
2021/04/01 10:25:20;;;;;;;3.40;1.30;;;20.20;90.00;;;;;;5070388;28;20120;-71
2021/04/01 10:30:21;;;;;;;4.43;1.83;;;20.20;90.00;;;;;;5066307;28;20028;-69
2021/04/01 10:32:59;;;;;;;5.38;1.55;;;20.10;90.10;;;;;;5059478;28;20667;-69
2021/04/01 10:35:31;;;;;;;6.00;1.73;;;20.00;90.10;;;;;;5064997;28;20442;-72
2021/04/01 10:38:02;;;;;;;6.50;2.00;;;20.00;90.30;;;;;;5068947;28;20040;-69
2021/04/01 10:40:32;;;;;;;4.93;2.05;;;20.00;90.40;;;;;;5070655;28;20501;-71
2021/04/01 10:43:08;;;;;;;6.10;1.45;;;19.90;90.40;;;;;;5068083;28;20032;-71
2021/04/01 10:45:40;;;;;;;5.35;1.15;;;19.90;90.50;;;;;;5066597;28;20020;-73
2021/04/01 10:48:29;;;;;;;4.88;1.15;;;19.80;90.70;;;;;;5065844;28;20125;-70
2021/04/01 10:51:02;;;;;;;3.72;1.20;;;19.80;90.50;;;;;;5072539;28;20040;-69
2021/04/01 10:53:31;;;;;;;2.92;1.35;;;19.80;90.50;;;;;;5074322;28;20055;-69
2021/04/01 10:56:07;;;;;;;6.75;1.58;;;19.80;90.60;;;;;;5077541;28;20218;-69
2021/04/01 10:58:36;;;;;;;5.25;1.45;;;19.70;90.80;;;;;;5070581;28;20024;-72
2021/04/01 11:01:04;;;;;;;3.08;1.48;;;19.70;91.10;;;;;;5071534;28;20062;-71
2021/04/01 11:03:43;;;;;;;7.15;1.90;;;19.70;91.10;;;;;;5073877;28;20020;-70
2021/04/01 11:06:14;;;;;;;4.82;1.52;;;19.60;91.10;;;;;;5071933;28;20025;-69
2021/04/01 11:08:44;;;;;;;3.83;1.73;;;19.60;91.30;;;;;;5068421;28;20119;-68
2021/04/01 11:11:13;;;;;;;4.43;1.50;;;19.60;91.30;;;;;;5073186;28;20469;-69
2021/04/01 11:13:45;;;;;;;4.85;1.50;;;19.60;91.40;;;;;;5062070;28;20058;-67
2021/04/01 11:16:15;;;;;;;7.43;2.38;;;19.50;91.40;;;;;;5073712;28;20021;-70
2021/04/01 11:18:51;;;;;;;6.20;1.73;;;19.50;91.30;;;;;;5058066;28;20040;-67
2021/04/01 11:21:20;;;;;;;4.03;1.80;;;19.40;91.50;;;;;;5062622;28;20132;-71
2021/04/01 11:23:49;;;;;;;4.60;1.65;;;19.40;91.60;;;;;;5076480;28;20054;-68
2021/04/01 11:26:25;;;;;;;4.20;1.52;;;19.40;91.60;;;;;;5075616;28;20097;-71
2021/04/01 11:28:53;;;;;;;5.05;1.70;;;19.30;91.60;;;;;;5072091;28;20068;-69
2021/04/01 11:31:26;;;;;;;5.78;1.30;;;19.20;91.50;;;;;;5076531;28;20074;-69
2021/04/01 11:33:59;;;;;;;4.40;1.80;;;19.20;91.40;;;;;;5075947;28;20063;-68
2021/04/01 11:36:31;;;;;;;4.07;1.20;;;19.20;91.30;;;;;;5076806;28;20381;-69
2021/04/01 11:39:02;;;;;;;7.25;2.22;;;19.10;91.30;;;;;;5067462;28;20281;-70
2021/04/01 11:41:30;;;;;;;2.67;1.33;;;19.10;91.30;;;;;;5074857;28;20090;-69
2021/04/01 11:43:59;;;;;;;8.82;2.30;;;19.00;91.50;;;;;;5075105;28;20052;-68
2021/04/01 11:46:31;;;;;;;3.53;1.25;;;19.00;91.70;;;;;;5073568;28;20025;-67
2021/04/01 11:49:00;;;;;;;5.00;1.42;;;19.00;91.80;;;;;;5077167;28;20048;-67
2021/04/01 11:51:34;;;;;;;6.40;1.85;;;18.90;91.70;;;;;;5075275;28;20021;-67
2021/04/01 11:54:04;;;;;;;8.60;1.45;;;18.90;91.60;;;;;;5067047;28;20427;-68
2021/04/01 11:56:42;;;;;;;3.70;1.30;;;18.80;91.60;;;;;;5077023;28;20036;-74
2021/04/01 11:59:20;;;;;;;6.07;1.42;;;18.80;91.60;;;;;;5078306;28;20390;-70
2021/04/01 12:01:55;;;;;;;5.05;1.88;;;18.70;91.60;;;;;;5062033;28;20025;-70
2021/04/01 12:04:25;;;;;;;3.13;0.95;;;18.70;91.80;;;;;;5072963;28;20036;-74
2021/04/01 12:06:54;;;;;;;4.63;1.35;;;18.70;91.40;;;;;;5072467;28;20020;-72
2021/04/01 12:09:22;;;;;;;5.40;1.27;;;18.70;91.50;;;;;;5077610;28;20035;-70
2021/04/01 12:11:49;;;;;;;4.75;1.13;;;18.70;91.90;;;;;;5066318;28;20017;-70
2021/04/01 12:14:19;;;;;;;4.30;1.05;;;18.70;91.70;;;;;;5067099;28;20116;-74
2021/04/01 12:16:47;;;;;;;5.13;1.38;;;18.70;91.90;;;;;;5070054;28;20406;-72
2021/04/01 12:19:15;;;;;;;8.20;2.05;;;18.70;92.00;;;;;;5068527;28;20098;-73
2021/04/01 12:21:43;;;;;;;7.13;1.10;;;18.70;92.20;;;;;;5067511;28;20083;-73
2021/04/01 12:24:10;;;;;;;9.55;1.50;;;18.70;92.00;;;;;;5071845;28;20048;-73
2021/04/01 12:26:49;;;;;;;2.72;1.08;;;18.60;92.10;;;;;;5076520;28;20483;-73
2021/04/01 12:29:17;;;;;;;5.97;2.08;;;18.60;92.10;;;;;;5071864;28;20048;-74
2021/04/01 12:31:55;;;;;;;4.25;1.38;;;18.50;92.00;;;;;;5079034;28;20091;-73
2021/04/01 12:34:28;;;;;;;3.65;1.42;;;18.50;92.00;;;;;;5073949;28;20113;-74
2021/04/01 12:36:59;;;;;;;3.00;1.10;;;18.50;91.90;;;;;;5065243;28;20021;-73
2021/04/01 12:39:38;;;;;;;4.47;1.65;;;18.40;92.00;;;;;;5072772;28;20029;-73
2021/04/01 12:42:06;;;;;;;3.25;1.40;;;18.40;92.20;;;;;;5076049;28;20032;-74
2021/04/01 12:44:38;;;;;;;5.80;1.23;;;18.40;92.20;;;;;;5077970;28;20021;-73
2021/04/01 12:47:07;;;;;;;4.57;1.25;;;18.40;92.20;;;;;;5073087;28;20048;-72
2021/04/01 12:49:36;;;;;;;4.97;1.70;;;18.40;92.20;;;;;;5070902;28;20047;-72
2021/04/01 12:52:05;;;;;;;4.53;1.13;;;18.40;92.30;;;;;;5076978;28;20078;-74
2021/04/01 12:54:42;;;;;;;11.10;1.35;;;18.40;92.40;;;;;;5076876;28;20025;-74
2021/04/01 12:57:19;;;;;;;5.97;0.93;;;18.40;92.60;;;;;;5076010;28;20028;-74
2021/04/01 12:59:50;;;;;;;5.88;2.03;;;18.50;92.70;;;;;;5069913;28;20113;-74
2021/04/01 13:02:21;;;;;;;3.15;1.13;;;18.50;92.60;;;;;;5076571;28;20446;-72
2021/04/01 13:04:56;;;;;;;2.92;1.35;;;18.60;92.60;;;;;;5064656;28;20016;-71
2021/04/01 13:07:30;;;;;;;5.53;0.95;;;18.60;92.70;;;;;;5073844;28;20082;-73
2021/04/01 13:10:11;;;;;;;4.10;1.10;;;18.60;92.70;;;;;;5072735;28;20473;-74
2021/04/01 13:12:39;;;;;;;4.88;1.20;;;18.70;92.70;;;;;;5074762;28;20029;-74
2021/04/01 13:15:07;;;;;;;1.80;0.95;;;18.70;92.70;;;;;;5073427;28;20479;-70
2021/04/01 13:17:34;;;;;;;4.90;0.90;;;18.80;92.60;;;;;;5081341;28;20466;-73
2021/04/01 13:20:02;;;;;;;2.30;1.10;;;18.70;92.50;;;;;;5077268;28;20114;-74
2021/04/01 13:22:33;;;;;;;7.53;0.85;;;18.80;92.60;;;;;;5078346;28;20478;-75
2021/04/01 13:27:29;;;;;;;3.63;1.13;;;18.90;92.60;;;;;;5072908;28;20439;-76
2021/04/01 13:30:01;;;;;;;3.95;0.98;;;18.90;92.60;;;;;;5076563;28;20390;-75
2021/04/01 13:32:40;;;;;;;2.33;0.80;;;18.90;92.50;;;;;;5075893;28;20033;-73
2021/04/01 13:35:15;;;;;;;4.90;0.82;;;18.90;92.70;;;;;;5078655;28;20036;-71
2021/04/01 13:40:50;;;;;;;4.15;1.33;;;18.90;92.60;;;;;;5065376;28;20044;-73
2021/04/01 13:43:23;;;;;;;3.33;1.02;;;19.00;92.50;;;;;;5065269;28;20036;-75
2021/04/01 13:45:50;;;;;;;6.10;1.58;;;19.10;92.50;;;;;;5068831;28;20172;-75
2021/04/01 13:48:23;;;;;;;5.80;1.45;;;19.10;92.40;;;;;;5076242;28;20067;-78
2021/04/01 13:50:55;;;;;;;3.47;1.40;;;19.20;92.50;;;;;;5077034;28;20016;-75
2021/04/01 13:53:32;;;;;;;5.75;1.52;;;19.20;92.40;;;;;;5071605;28;20040;-71
2021/04/01 13:56:15;;;;;;;8.50;2.17;;;19.30;92.20;;;;;;5068156;28;20032;-74
2021/04/01 14:10:02;;;;;;;4.03;1.23;;;19.20;92.30;;;;;;5069394;28;20085;-75
2021/04/01 14:12:33;;;;;;;5.68;1.48;;;19.20;92.40;;;;;;5071747;28;20097;-75
2021/04/01 14:15:02;;;;;;;9.68;2.17;;;19.20;92.50;;;;;;5071777;28;20047;-72
2021/04/01 14:17:29;;;;;;;3.45;1.17;;;19.10;92.70;;;;;;5081105;28;20048;-73
2021/04/01 14:19:57;;;;;;;5.55;2.25;;;19.10;92.50;;;;;;5075116;28;20020;-73
2021/04/01 14:22:27;;;;;;;2.42;1.35;;;19.20;92.60;;;;;;5061359;28;20363;-75
2021/04/01 14:25:00;;;;;;;2.88;1.40;;;19.10;92.70;;;;;;5077010;28;20024;-76
2021/04/01 14:27:31;;;;;;;4.93;1.35;;;19.10;92.60;;;;;;5069718;28;20743;-75
2021/04/01 14:29:59;;;;;;;3.42;1.67;;;19.10;92.70;;;;;;5072864;28;20136;-74
2021/04/01 14:32:31;;;;;;;3.30;1.23;;;19.00;92.80;;;;;;5071895;28;20029;-73
2021/04/01 14:35:01;;;;;;;2.95;1.48;;;19.00;92.70;;;;;;5076824;28;20024;-72
2021/04/01 14:37:30;;;;;;;4.97;1.08;;;19.00;92.80;;;;;;5079937;28;20028;-74
2021/04/01 14:39:59;;;;;;;5.32;1.42;;;19.00;92.70;;;;;;5074764;28;20377;-77
2021/04/01 14:42:40;;;;;;;5.03;1.23;;;19.10;92.80;;;;;;5071229;28;20063;-73
2021/04/01 14:45:09;;;;;;;5.10;1.80;;;19.00;92.80;;;;;;5072091;28;20028;-72
2021/04/01 14:47:38;;;;;;;3.85;1.40;;;19.10;93.00;;;;;;5080384;28;20064;-74
2021/04/01 14:50:08;;;;;;;2.28;1.02;;;19.00;93.10;;;;;;5075348;28;20028;-75
2021/04/01 14:52:37;;;;;;;4.07;1.30;;;19.00;93.10;;;;;;5073277;28;20352;-77
2021/04/01 14:55:07;;;;;;;5.95;1.30;;;19.00;93.10;;;;;;5077499;28;20035;-76